Cory, Colorado
Current Conditions -  °F | °C
As of 3:35 PM on Friday 19 Dec 2014 (Local Time) from KAJZ Reporting Station
Clear Clear  
Wind Chill: 43°   Ceiling: Unl
Heat Index: 43°   Visibility: 10mi
Dew Point: 24°   Wind: 3mph
Humidity: 48%   Direction: 80°E
Pressure: 30.2"   Gusts: NA
Location:  38.79°N, 107.99°W
Report Text: KAJZ 192235Z AUTO 08003KT 10SM CLR 06/M04 A3020 RMK AO2 T00611042
Loading
Personal Weather Stations






























Interactive Weather Map New forecast layout! Learn more

10-Day Weather Forecast

Advertisements
Track Severe Weather on mobile